sensor_id;sensor_type;location;lat;lon;timestamp;P1;durP1;ratioP1;P2;durP2;ratioP2
54875;SDS011;40764;48.472;8.166;2023-07-24T00:05:20;16.57;;;7.73;;
54875;SDS011;40764;48.472;8.166;2023-07-24T00:11:21;16.20;;;7.85;;
54875;SDS011;40764;48.472;8.166;2023-07-24T00:17:21;15.88;;;7.68;;
54875;SDS011;40764;48.472;8.166;2023-07-24T00:23:21;14.07;;;8.10;;
54875;SDS011;40764;48.472;8.166;2023-07-24T00:29:22;19.20;;;8.57;;
54875;SDS011;40764;48.472;8.166;2023-07-24T00:35:22;18.13;;;8.77;;
54875;SDS011;40764;48.472;8.166;2023-07-24T00:41:23;15.80;;;8.33;;
54875;SDS011;40764;48.472;8.166;2023-07-24T00:47:23;14.50;;;7.80;;
54875;SDS011;40764;48.472;8.166;2023-07-24T00:53:26;18.42;;;8.40;;
54875;SDS011;40764;48.472;8.166;2023-07-24T00:59:26;16.40;;;7.33;;
54875;SDS011;40764;48.472;8.166;2023-07-24T01:05:27;21.13;;;9.07;;
54875;SDS011;40764;48.472;8.166;2023-07-24T01:11:28;20.00;;;9.30;;
54875;SDS011;40764;48.472;8.166;2023-07-24T01:17:32;17.02;;;8.57;;
54875;SDS011;40764;48.472;8.166;2023-07-24T01:23:45;14.63;;;7.45;;
54875;SDS011;40764;48.472;8.166;2023-07-24T01:29:52;17.63;;;8.88;;
54875;SDS011;40764;48.472;8.166;2023-07-24T01:35:53;20.40;;;9.57;;
54875;SDS011;40764;48.472;8.166;2023-07-24T01:41:57;15.45;;;8.77;;
54875;SDS011;40764;48.472;8.166;2023-07-24T01:47:58;18.00;;;8.53;;
54875;SDS011;40764;48.472;8.166;2023-07-24T01:53:58;19.77;;;8.63;;
54875;SDS011;40764;48.472;8.166;2023-07-24T01:59:59;16.73;;;8.30;;
54875;SDS011;40764;48.472;8.166;2023-07-24T02:05:59;17.42;;;9.07;;
54875;SDS011;40764;48.472;8.166;2023-07-24T02:11:59;19.90;;;8.88;;
54875;SDS011;40764;48.472;8.166;2023-07-24T02:18:01;16.23;;;8.55;;
54875;SDS011;40764;48.472;8.166;2023-07-24T02:24:02;16.03;;;8.50;;
54875;SDS011;40764;48.472;8.166;2023-07-24T02:30:02;20.13;;;8.17;;
54875;SDS011;40764;48.472;8.166;2023-07-24T02:36:03;16.00;;;7.80;;
54875;SDS011;40764;48.472;8.166;2023-07-24T02:42:03;20.70;;;8.73;;
54875;SDS011;40764;48.472;8.166;2023-07-24T02:48:04;19.57;;;9.40;;
54875;SDS011;40764;48.472;8.166;2023-07-24T02:54:05;18.83;;;9.47;;
54875;SDS011;40764;48.472;8.166;2023-07-24T03:00:06;21.87;;;9.23;;
54875;SDS011;40764;48.472;8.166;2023-07-24T03:06:07;23.13;;;8.97;;
54875;SDS011;40764;48.472;8.166;2023-07-24T03:12:07;23.10;;;9.93;;
54875;SDS011;40764;48.472;8.166;2023-07-24T03:18:08;17.13;;;8.57;;
54875;SDS011;40764;48.472;8.166;2023-07-24T03:24:08;16.52;;;8.05;;
54875;SDS011;40764;48.472;8.166;2023-07-24T03:30:08;22.25;;;9.40;;
54875;SDS011;40764;48.472;8.166;2023-07-24T03:36:09;18.17;;;8.50;;
54875;SDS011;40764;48.472;8.166;2023-07-24T03:42:10;19.73;;;8.98;;
54875;SDS011;40764;48.472;8.166;2023-07-24T03:48:12;17.20;;;8.90;;
54875;SDS011;40764;48.472;8.166;2023-07-24T03:54:13;18.00;;;9.82;;
54875;SDS011;40764;48.472;8.166;2023-07-24T04:00:13;16.87;;;9.13;;
54875;SDS011;40764;48.472;8.166;2023-07-24T04:06:14;17.30;;;8.67;;
54875;SDS011;40764;48.472;8.166;2023-07-24T04:12:14;20.13;;;10.02;;
54875;SDS011;40764;48.472;8.166;2023-07-24T04:18:14;19.50;;;9.00;;
54875;SDS011;40764;48.472;8.166;2023-07-24T04:24:15;19.92;;;9.27;;
54875;SDS011;40764;48.472;8.166;2023-07-24T04:30:15;19.03;;;9.77;;
54875;SDS011;40764;48.472;8.166;2023-07-24T04:36:16;19.40;;;8.83;;
54875;SDS011;40764;48.472;8.166;2023-07-24T04:42:16;18.77;;;9.25;;
54875;SDS011;40764;48.472;8.166;2023-07-24T04:48:16;22.58;;;10.82;;
54875;SDS011;40764;48.472;8.166;2023-07-24T04:54:17;18.83;;;9.77;;
54875;SDS011;40764;48.472;8.166;2023-07-24T05:00:17;25.17;;;10.97;;
54875;SDS011;40764;48.472;8.166;2023-07-24T05:06:18;21.45;;;10.45;;
54875;SDS011;40764;48.472;8.166;2023-07-24T05:12:18;17.88;;;9.27;;
54875;SDS011;40764;48.472;8.166;2023-07-24T05:18:18;19.58;;;9.50;;
54875;SDS011;40764;48.472;8.166;2023-07-24T05:24:19;18.53;;;8.80;;
54875;SDS011;40764;48.472;8.166;2023-07-24T05:30:19;14.48;;;7.88;;
54875;SDS011;40764;48.472;8.166;2023-07-24T05:36:19;20.65;;;9.32;;
54875;SDS011;40764;48.472;8.166;2023-07-24T05:42:20;18.65;;;8.80;;
54875;SDS011;40764;48.472;8.166;2023-07-24T05:48:20;17.27;;;9.30;;
54875;SDS011;40764;48.472;8.166;2023-07-24T05:54:20;19.83;;;8.20;;
54875;SDS011;40764;48.472;8.166;2023-07-24T06:00:21;22.48;;;9.57;;
54875;SDS011;40764;48.472;8.166;2023-07-24T06:06:21;22.55;;;9.25;;
54875;SDS011;40764;48.472;8.166;2023-07-24T06:12:21;18.53;;;8.97;;
54875;SDS011;40764;48.472;8.166;2023-07-24T06:18:22;19.30;;;9.45;;
54875;SDS011;40764;48.472;8.166;2023-07-24T06:24:22;19.05;;;8.88;;
54875;SDS011;40764;48.472;8.166;2023-07-24T06:30:23;30.60;;;11.33;;
54875;SDS011;40764;48.472;8.166;2023-07-24T06:36:24;28.20;;;9.67;;
54875;SDS011;40764;48.472;8.166;2023-07-24T06:42:24;28.08;;;10.25;;
54875;SDS011;40764;48.472;8.166;2023-07-24T06:48:24;23.17;;;9.88;;
54875;SDS011;40764;48.472;8.166;2023-07-24T06:54:25;22.30;;;9.43;;
54875;SDS011;40764;48.472;8.166;2023-07-24T07:00:25;23.17;;;9.55;;
54875;SDS011;40764;48.472;8.166;2023-07-24T07:06:25;34.63;;;11.73;;
54875;SDS011;40764;48.472;8.166;2023-07-24T07:12:25;31.85;;;11.88;;
54875;SDS011;40764;48.472;8.166;2023-07-24T07:18:26;20.08;;;9.43;;
54875;SDS011;40764;48.472;8.166;2023-07-24T07:24:26;23.70;;;8.70;;
54875;SDS011;40764;48.472;8.166;2023-07-24T07:30:26;18.48;;;8.63;;
54875;SDS011;40764;48.472;8.166;2023-07-24T07:36:27;23.02;;;9.48;;
54875;SDS011;40764;48.472;8.166;2023-07-24T07:42:27;24.30;;;8.97;;
54875;SDS011;40764;48.472;8.166;2023-07-24T07:48:27;20.23;;;9.02;;
54875;SDS011;40764;48.472;8.166;2023-07-24T07:54:28;22.50;;;9.07;;
54875;SDS011;40764;48.472;8.166;2023-07-24T08:00:28;20.52;;;9.02;;
54875;SDS011;40764;48.472;8.166;2023-07-24T08:06:28;20.95;;;9.95;;
54875;SDS011;40764;48.472;8.166;2023-07-24T08:12:29;16.90;;;9.70;;
54875;SDS011;40764;48.472;8.166;2023-07-24T08:18:29;18.30;;;9.40;;
54875;SDS011;40764;48.472;8.166;2023-07-24T08:24:33;17.30;;;9.10;;
54875;SDS011;40764;48.472;8.166;2023-07-24T08:30:35;23.65;;;9.77;;
54875;SDS011;40764;48.472;8.166;2023-07-24T08:36:35;15.30;;;7.68;;
54875;SDS011;40764;48.472;8.166;2023-07-24T08:42:38;17.58;;;7.88;;
54875;SDS011;40764;48.472;8.166;2023-07-24T08:48:42;16.30;;;7.35;;
54875;SDS011;40764;48.472;8.166;2023-07-24T08:54:43;15.43;;;7.40;;
54875;SDS011;40764;48.472;8.166;2023-07-24T09:00:45;15.73;;;7.72;;
54875;SDS011;40764;48.472;8.166;2023-07-24T09:06:46;13.97;;;7.87;;
54875;SDS011;40764;48.472;8.166;2023-07-24T09:12:47;14.43;;;8.00;;
54875;SDS011;40764;48.472;8.166;2023-07-24T09:18:48;22.35;;;8.23;;
54875;SDS011;40764;48.472;8.166;2023-07-24T09:24:52;14.70;;;7.13;;
54875;SDS011;40764;48.472;8.166;2023-07-24T09:30:57;21.42;;;9.68;;
54875;SDS011;40764;48.472;8.166;2023-07-24T09:37:00;13.98;;;6.93;;
54875;SDS011;40764;48.472;8.166;2023-07-24T09:43:00;15.50;;;8.70;;
54875;SDS011;40764;48.472;8.166;2023-07-24T09:49:01;15.87;;;7.20;;
54875;SDS011;40764;48.472;8.166;2023-07-24T09:55:08;19.10;;;8.20;;
54875;SDS011;40764;48.472;8.166;2023-07-24T10:01:13;14.03;;;6.53;;
54875;SDS011;40764;48.472;8.166;2023-07-24T10:07:13;14.23;;;7.57;;
54875;SDS011;40764;48.472;8.166;2023-07-24T10:19:15;18.10;;;7.37;;
54875;SDS011;40764;48.472;8.166;2023-07-24T10:25:16;15.40;;;7.40;;
54875;SDS011;40764;48.472;8.166;2023-07-24T10:31:20;15.17;;;7.57;;
54875;SDS011;40764;48.472;8.166;2023-07-24T10:37:33;18.42;;;7.75;;
54875;SDS011;40764;48.472;8.166;2023-07-24T10:49:47;17.23;;;7.65;;
54875;SDS011;40764;48.472;8.166;2023-07-24T10:55:50;18.20;;;8.80;;
54875;SDS011;40764;48.472;8.166;2023-07-24T11:01:51;16.83;;;8.10;;
54875;SDS011;40764;48.472;8.166;2023-07-24T11:07:51;10.63;;;6.50;;
54875;SDS011;40764;48.472;8.166;2023-07-24T11:13:52;14.10;;;8.33;;
54875;SDS011;40764;48.472;8.166;2023-07-24T11:19:52;13.20;;;7.77;;
54875;SDS011;40764;48.472;8.166;2023-07-24T11:25:53;15.57;;;7.15;;
54875;SDS011;40764;48.472;8.166;2023-07-24T11:43:56;11.43;;;6.35;;
54875;SDS011;40764;48.472;8.166;2023-07-24T11:50:00;12.97;;;6.57;;
54875;SDS011;40764;48.472;8.166;2023-07-24T11:56:01;11.20;;;6.28;;
54875;SDS011;40764;48.472;8.166;2023-07-24T12:02:02;11.25;;;5.65;;
54875;SDS011;40764;48.472;8.166;2023-07-24T12:08:02;13.40;;;5.67;;
54875;SDS011;40764;48.472;8.166;2023-07-24T12:14:03;11.37;;;5.80;;
54875;SDS011;40764;48.472;8.166;2023-07-24T12:20:03;13.10;;;6.75;;
54875;SDS011;40764;48.472;8.166;2023-07-24T12:26:06;13.70;;;6.07;;
54875;SDS011;40764;48.472;8.166;2023-07-24T12:32:07;10.43;;;5.93;;
54875;SDS011;40764;48.472;8.166;2023-07-24T12:38:07;9.82;;;5.97;;
54875;SDS011;40764;48.472;8.166;2023-07-24T12:44:07;9.80;;;5.32;;
54875;SDS011;40764;48.472;8.166;2023-07-24T12:50:08;12.27;;;6.32;;
54875;SDS011;40764;48.472;8.166;2023-07-24T12:56:09;8.93;;;5.28;;
54875;SDS011;40764;48.472;8.166;2023-07-24T13:02:09;11.25;;;6.05;;
54875;SDS011;40764;48.472;8.166;2023-07-24T13:08:09;10.83;;;5.90;;
54875;SDS011;40764;48.472;8.166;2023-07-24T13:14:10;12.18;;;5.95;;
54875;SDS011;40764;48.472;8.166;2023-07-24T13:20:10;10.55;;;5.65;;
54875;SDS011;40764;48.472;8.166;2023-07-24T13:26:11;11.60;;;5.05;;
54875;SDS011;40764;48.472;8.166;2023-07-24T13:32:12;10.00;;;5.30;;
54875;SDS011;40764;48.472;8.166;2023-07-24T13:38:13;8.88;;;5.45;;
54875;SDS011;40764;48.472;8.166;2023-07-24T13:50:14;14.77;;;4.95;;
54875;SDS011;40764;48.472;8.166;2023-07-24T13:56:15;9.80;;;5.27;;
54875;SDS011;40764;48.472;8.166;2023-07-24T14:02:15;10.30;;;5.38;;
54875;SDS011;40764;48.472;8.166;2023-07-24T14:08:15;10.03;;;4.37;;
54875;SDS011;40764;48.472;8.166;2023-07-24T14:14:17;7.60;;;4.63;;
54875;SDS011;40764;48.472;8.166;2023-07-24T14:20:18;7.03;;;3.90;;
54875;SDS011;40764;48.472;8.166;2023-07-24T14:26:18;8.73;;;4.40;;
54875;SDS011;40764;48.472;8.166;2023-07-24T14:32:19;7.70;;;4.32;;
54875;SDS011;40764;48.472;8.166;2023-07-24T14:38:19;12.13;;;5.13;;
54875;SDS011;40764;48.472;8.166;2023-07-24T14:44:19;7.47;;;4.60;;
54875;SDS011;40764;48.472;8.166;2023-07-24T14:50:20;12.30;;;5.20;;
54875;SDS011;40764;48.472;8.166;2023-07-24T14:56:20;10.00;;;5.25;;
54875;SDS011;40764;48.472;8.166;2023-07-24T15:02:21;12.20;;;5.43;;
54875;SDS011;40764;48.472;8.166;2023-07-24T15:08:21;10.70;;;4.80;;
54875;SDS011;40764;48.472;8.166;2023-07-24T15:14:22;11.63;;;4.63;;
54875;SDS011;40764;48.472;8.166;2023-07-24T15:20:22;9.97;;;5.47;;
54875;SDS011;40764;48.472;8.166;2023-07-24T15:26:23;10.70;;;6.25;;
54875;SDS011;40764;48.472;8.166;2023-07-24T15:32:24;10.45;;;5.28;;
54875;SDS011;40764;48.472;8.166;2023-07-24T15:38:24;9.52;;;5.25;;
54875;SDS011;40764;48.472;8.166;2023-07-24T15:44:24;8.13;;;4.73;;
54875;SDS011;40764;48.472;8.166;2023-07-24T15:50:25;12.65;;;5.85;;
54875;SDS011;40764;48.472;8.166;2023-07-24T15:56:25;12.90;;;5.23;;
54875;SDS011;40764;48.472;8.166;2023-07-24T16:02:26;11.07;;;5.53;;
54875;SDS011;40764;48.472;8.166;2023-07-24T16:08:26;10.50;;;5.68;;
54875;SDS011;40764;48.472;8.166;2023-07-24T16:14:26;12.40;;;5.00;;
54875;SDS011;40764;48.472;8.166;2023-07-24T16:20:27;11.37;;;5.73;;
54875;SDS011;40764;48.472;8.166;2023-07-24T16:26:27;13.27;;;6.67;;
54875;SDS011;40764;48.472;8.166;2023-07-24T16:32:27;9.10;;;5.45;;
54875;SDS011;40764;48.472;8.166;2023-07-24T16:38:28;8.38;;;5.28;;
54875;SDS011;40764;48.472;8.166;2023-07-24T16:44:28;7.10;;;4.53;;
54875;SDS011;40764;48.472;8.166;2023-07-24T16:56:30;7.60;;;4.85;;
54875;SDS011;40764;48.472;8.166;2023-07-24T17:02:30;6.67;;;4.23;;
54875;SDS011;40764;48.472;8.166;2023-07-24T17:08:33;7.63;;;4.15;;
54875;SDS011;40764;48.472;8.166;2023-07-24T17:14:33;5.87;;;3.57;;
54875;SDS011;40764;48.472;8.166;2023-07-24T17:20:34;6.43;;;3.45;;
54875;SDS011;40764;48.472;8.166;2023-07-24T17:26:34;7.27;;;3.10;;
54875;SDS011;40764;48.472;8.166;2023-07-24T17:32:35;6.53;;;3.25;;
54875;SDS011;40764;48.472;8.166;2023-07-24T17:38:35;6.20;;;3.23;;
54875;SDS011;40764;48.472;8.166;2023-07-24T17:44:35;5.23;;;3.17;;
54875;SDS011;40764;48.472;8.166;2023-07-24T17:50:36;7.30;;;3.30;;
54875;SDS011;40764;48.472;8.166;2023-07-24T17:56:36;5.97;;;3.17;;
54875;SDS011;40764;48.472;8.166;2023-07-24T18:02:37;6.53;;;3.80;;
54875;SDS011;40764;48.472;8.166;2023-07-24T18:08:38;10.57;;;5.57;;
54875;SDS011;40764;48.472;8.166;2023-07-24T18:14:38;6.25;;;3.40;;
54875;SDS011;40764;48.472;8.166;2023-07-24T18:20:38;7.57;;;3.67;;
54875;SDS011;40764;48.472;8.166;2023-07-24T18:26:39;4.50;;;2.70;;
54875;SDS011;40764;48.472;8.166;2023-07-24T18:32:39;7.07;;;3.70;;
54875;SDS011;40764;48.472;8.166;2023-07-24T18:38:40;6.13;;;3.57;;
54875;SDS011;40764;48.472;8.166;2023-07-24T18:50:41;5.68;;;3.00;;
54875;SDS011;40764;48.472;8.166;2023-07-24T18:56:43;8.40;;;3.92;;
54875;SDS011;40764;48.472;8.166;2023-07-24T19:02:44;7.80;;;3.83;;
54875;SDS011;40764;48.472;8.166;2023-07-24T19:08:45;8.17;;;3.83;;
54875;SDS011;40764;48.472;8.166;2023-07-24T19:14:49;8.05;;;2.95;;
54875;SDS011;40764;48.472;8.166;2023-07-24T19:20:49;9.63;;;3.83;;
54875;SDS011;40764;48.472;8.166;2023-07-24T19:26:50;7.85;;;3.97;;
54875;SDS011;40764;48.472;8.166;2023-07-24T19:32:50;7.83;;;3.23;;
54875;SDS011;40764;48.472;8.166;2023-07-24T19:38:50;8.10;;;3.67;;
54875;SDS011;40764;48.472;8.166;2023-07-24T19:44:51;7.47;;;3.73;;
54875;SDS011;40764;48.472;8.166;2023-07-24T19:50:52;5.30;;;3.10;;
54875;SDS011;40764;48.472;8.166;2023-07-24T19:56:56;10.45;;;4.07;;
54875;SDS011;40764;48.472;8.166;2023-07-24T20:02:57;6.83;;;3.97;;
54875;SDS011;40764;48.472;8.166;2023-07-24T20:08:57;9.40;;;4.22;;
54875;SDS011;40764;48.472;8.166;2023-07-24T20:14:57;11.13;;;4.00;;
54875;SDS011;40764;48.472;8.166;2023-07-24T20:20:58;9.68;;;3.90;;
54875;SDS011;40764;48.472;8.166;2023-07-24T20:26:58;6.87;;;3.63;;
54875;SDS011;40764;48.472;8.166;2023-07-24T20:32:59;8.50;;;4.35;;
54875;SDS011;40764;48.472;8.166;2023-07-24T20:38:59;7.10;;;3.60;;
54875;SDS011;40764;48.472;8.166;2023-07-24T20:44:59;9.13;;;3.53;;
54875;SDS011;40764;48.472;8.166;2023-07-24T20:51:00;6.30;;;3.17;;
54875;SDS011;40764;48.472;8.166;2023-07-24T20:57:00;7.35;;;3.35;;
54875;SDS011;40764;48.472;8.166;2023-07-24T21:03:00;8.18;;;3.95;;
54875;SDS011;40764;48.472;8.166;2023-07-24T21:09:01;10.67;;;3.60;;
54875;SDS011;40764;48.472;8.166;2023-07-24T21:15:01;11.20;;;3.58;;
54875;SDS011;40764;48.472;8.166;2023-07-24T21:21:01;9.27;;;3.57;;
54875;SDS011;40764;48.472;8.166;2023-07-24T21:27:02;8.73;;;3.47;;
54875;SDS011;40764;48.472;8.166;2023-07-24T21:33:03;8.43;;;3.53;;
54875;SDS011;40764;48.472;8.166;2023-07-24T21:39:03;8.67;;;4.17;;
54875;SDS011;40764;48.472;8.166;2023-07-24T21:45:04;7.68;;;4.32;;
54875;SDS011;40764;48.472;8.166;2023-07-24T21:51:06;6.88;;;3.72;;
54875;SDS011;40764;48.472;8.166;2023-07-24T21:57:07;7.83;;;4.23;;
54875;SDS011;40764;48.472;8.166;2023-07-24T22:03:08;11.57;;;4.30;;
54875;SDS011;40764;48.472;8.166;2023-07-24T22:09:09;9.53;;;4.50;;
54875;SDS011;40764;48.472;8.166;2023-07-24T22:15:09;14.32;;;4.53;;
54875;SDS011;40764;48.472;8.166;2023-07-24T22:21:11;7.72;;;3.75;;
54875;SDS011;40764;48.472;8.166;2023-07-24T22:27:11;7.53;;;3.85;;
54875;SDS011;40764;48.472;8.166;2023-07-24T22:33:11;5.15;;;2.88;;
54875;SDS011;40764;48.472;8.166;2023-07-24T22:39:12;9.63;;;3.77;;
54875;SDS011;40764;48.472;8.166;2023-07-24T22:45:12;10.03;;;4.53;;
54875;SDS011;40764;48.472;8.166;2023-07-24T22:51:12;12.13;;;4.20;;
54875;SDS011;40764;48.472;8.166;2023-07-24T22:57:13;8.07;;;4.22;;
54875;SDS011;40764;48.472;8.166;2023-07-24T23:03:13;10.23;;;3.95;;
54875;SDS011;40764;48.472;8.166;2023-07-24T23:15:51;13.80;;;4.07;;
54875;SDS011;40764;48.472;8.166;2023-07-24T23:22:29;10.43;;;4.80;;
54875;SDS011;40764;48.472;8.166;2023-07-24T23:28:29;12.63;;;3.53;;
54875;SDS011;40764;48.472;8.166;2023-07-24T23:34:30;9.57;;;4.50;;
54875;SDS011;40764;48.472;8.166;2023-07-24T23:40:30;12.00;;;4.23;;
54875;SDS011;40764;48.472;8.166;2023-07-24T23:46:31;12.93;;;3.67;;
54875;SDS011;40764;48.472;8.166;2023-07-24T23:52:31;6.27;;;4.07;;
54875;SDS011;40764;48.472;8.166;2023-07-24T23:58:31;9.37;;;3.63;;
